Terminal Aerodrome Forecast
Issued by NWS

Home | Current Version | Previous Version | Text Only | Print | Product List | Glossary On
Versions: 1 2 3 4 5 6 7 8 9 10 11 12
340
FTUS45 KABQ 252340
TAFFMN
TAF
KFMN 252340Z 2600/2624 29011G21KT P6SM BKN120
     FM260200 27011KT P6SM BKN120
     FM260900 08006KT P6SM SCT120
     FM261900 25008KT P6SM SCT120
     FM262200 27011G21KT P6SM SCT120=

USA.gov is the U.S. government's official web portal to all federal, state and local government web resources and services.